Weather at Lovelace Westside Hospital Heliport

Public forecast

Using degrees Fahrenheit for public forecast. Weather courtesy of forecast.io.

Closest aviation weather report (METAR) to Lovelace Westside Hospital Heliport

Closest report is Double Eagle II Airport, 6.9 nm (12.8 km) WSW.

2024/06/15 17:50 (retrieved 20 minutes ago)

KAEG 151750Z 00000KT 10SM CLR 24/09 A3014

Closest aviation forecast (TAF) to Lovelace Westside Hospital Heliport

Closest forecast is Double Eagle II Airport, 6.9 nm (12.8 km) WSW.

2024/06/15 18:24 (retrieved 0 seconds ago)

TAF KAEG 151722Z 1518/1618 VRB06KT P6SM SKC FM152000 23009KT P6SM FEW120 FM160200 VRB05KT P6SM SKC